Time;durP1;ratioP1;P1;durP2;ratioP2;P2;SDS_P1;SDS_P2;PMS_P1;PMS_P2;Temp;Humidity;BMP_temperature;BMP_pressure;BME280_temperature;BME280_humidity;BME280_pressure;Samples;Min_cycle;Max_cycle;Signal;HPM_P1;HPM_P2
2023/11/14 00:01:24;;;;;;;5.67;2.10;;;13.80;99.90;;;;;;5019403;28;20432;-86
2023/11/14 00:03:50;;;;;;;4.88;1.90;;;13.50;99.90;;;;;;5015829;28;20203;-86
2023/11/14 00:06:16;;;;;;;4.40;2.10;;;13.40;99.90;;;;;;5022557;28;20187;-86
2023/11/14 00:08:41;;;;;;;5.77;1.70;;;13.70;99.90;;;;;;5017270;28;20202;-86
2023/11/14 00:11:09;;;;;;;5.93;2.30;;;14.20;99.90;;;;;;5017706;28;20179;-86
2023/11/14 00:13:35;;;;;;;7.40;2.20;;;12.90;99.90;;;;;;5015692;28;20542;-86
2023/11/14 00:16:01;;;;;;;4.13;1.97;;;14.10;99.90;;;;;;5019453;28;20186;-85
2023/11/14 00:18:26;;;;;;;5.47;2.17;;;14.10;99.90;;;;;;5018430;28;20182;-86
2023/11/14 00:20:54;;;;;;;5.63;1.67;;;13.50;99.90;;;;;;5019085;28;20193;-86
2023/11/14 00:23:20;;;;;;;4.43;2.22;;;13.50;99.90;;;;;;5027124;28;20212;-86
2023/11/14 00:25:45;;;;;;;4.50;1.90;;;13.70;99.90;;;;;;5032324;28;20214;-86
2023/11/14 00:28:11;;;;;;;7.07;2.43;;;14.10;99.90;;;;;;5030449;28;20602;-86
2023/11/14 00:30:37;;;;;;;4.63;1.48;;;13.90;99.90;;;;;;5018832;28;20190;-86
2023/11/14 00:33:03;;;;;;;4.57;1.33;;;13.60;99.90;;;;;;5018724;28;20198;-86
2023/11/14 00:35:29;;;;;;;6.57;2.10;;;13.50;99.90;;;;;;5016024;28;20816;-86
2023/11/14 00:37:54;;;;;;;4.17;1.70;;;13.60;99.90;;;;;;5022033;28;20441;-86
2023/11/14 00:40:22;;;;;;;4.90;1.50;;;13.60;99.90;;;;;;5017058;28;20222;-86
2023/11/14 00:42:48;;;;;;;3.15;1.63;;;13.50;99.90;;;;;;5017355;28;20198;-86
2023/11/14 00:45:14;;;;;;;5.47;2.20;;;13.80;99.90;;;;;;5020096;28;20182;-86
2023/11/14 00:47:40;;;;;;;6.07;1.95;;;13.50;99.90;;;;;;5019129;28;21012;-86
2023/11/14 00:50:06;;;;;;;5.73;1.80;;;13.60;99.90;;;;;;5015931;28;20189;-86
2023/11/14 00:52:32;;;;;;;4.60;1.80;;;13.50;99.90;;;;;;5015805;28;20193;-91
2023/11/14 00:54:58;;;;;;;3.43;1.50;;;13.50;99.90;;;;;;5017608;28;20190;-86
2023/11/14 00:57:23;;;;;;;3.97;1.57;;;13.40;99.90;;;;;;5013042;28;20194;-86
2023/11/14 00:59:49;;;;;;;5.50;1.73;;;13.70;99.90;;;;;;5016192;28;20182;-86
2023/11/14 01:02:15;;;;;;;4.50;1.93;;;13.00;99.90;;;;;;5015439;28;20183;-86
2023/11/14 01:04:40;;;;;;;5.05;2.00;;;13.30;99.90;;;;;;5017047;28;20206;-86
2023/11/14 01:07:07;;;;;;;4.40;2.10;;;13.20;99.90;;;;;;5018298;28;20187;-85
2023/11/14 01:09:33;;;;;;;4.85;1.75;;;13.40;99.90;;;;;;5019360;28;20182;-86
2023/11/14 01:11:59;;;;;;;5.70;1.60;;;14.60;99.90;;;;;;5024155;28;20178;-86
2023/11/14 01:14:26;;;;;;;6.93;1.75;;;14.90;99.90;;;;;;5047189;28;20456;-86
2023/11/14 01:16:58;;;;;;;6.25;2.30;;;14.70;99.90;;;;;;5043710;28;20193;-88
2023/11/14 01:19:26;;;;;;;4.40;2.10;;;14.50;99.90;;;;;;5036079;28;21026;-87
2023/11/14 01:21:52;;;;;;;9.73;2.83;;;13.80;99.90;;;;;;5033488;28;20274;-87
2023/11/14 01:24:18;;;;;;;3.90;1.83;;;12.90;99.90;;;;;;5015816;28;20203;-87
2023/11/14 01:26:43;;;;;;;3.90;1.33;;;14.70;99.90;;;;;;5018861;28;20178;-87
2023/11/14 01:29:09;;;;;;;4.93;2.90;;;15.30;99.90;;;;;;5019982;28;20218;-87
2023/11/14 01:32:13;;;;;;;;;;;;;;;;;;;;;
2023/11/14 01:42:19;;;;;;;4.40;1.58;;;13.60;99.90;;;;;;5030607;28;20226;-87
2023/11/14 01:44:45;;;;;;;4.30;1.80;;;;;;;;;;5033630;28;20225;-87
2023/11/14 01:47:12;;;;;;;4.10;1.70;;;13.10;99.90;;;;;;5043510;28;20166;-87
2023/11/14 01:49:37;;;;;;;3.45;1.70;;;14.80;99.90;;;;;;5051909;28;20433;-85
2023/11/14 01:52:12;;;;;;;4.43;1.60;;;12.30;99.90;;;;;;5042707;28;20189;-86
2023/11/14 01:54:41;;;;;;;7.80;2.38;;;13.10;99.90;;;;;;5037035;28;20205;-86
2023/11/14 01:57:10;;;;;;;4.47;2.05;;;13.70;99.90;;;;;;5032676;28;20265;-86
2023/11/14 01:59:36;;;;;;;5.95;1.80;;;14.70;99.90;;;;;;5052124;28;20213;-86
2023/11/14 02:02:02;;;;;;;3.87;1.70;;;12.30;99.90;;;;;;5031135;28;20230;-86
2023/11/14 02:04:32;;;;;;;5.93;2.35;;;14.20;99.90;;;;;;5035044;28;20456;-86
2023/11/14 02:06:58;;;;;;;4.35;1.70;;;14.30;99.90;;;;;;5033204;28;20186;-86
2023/11/14 02:09:26;;;;;;;5.38;1.80;;;13.80;99.90;;;;;;5036030;28;20193;-86
2023/11/14 02:11:52;;;;;;;3.28;1.88;;;14.40;99.90;;;;;;5036420;28;20177;-86
2023/11/14 02:14:18;;;;;;;3.20;1.52;;;15.20;99.90;;;;;;5032149;28;20204;-86
2023/11/14 02:16:56;;;;;;;3.10;1.43;;;13.20;99.90;;;;;;5037671;28;20184;-86
2023/11/14 02:19:22;;;;;;;5.10;1.55;;;14.20;99.90;;;;;;5036564;28;20221;-86
2023/11/14 02:21:54;;;;;;;6.72;1.85;;;14.50;99.90;;;;;;5041223;28;20186;-86
2023/11/14 02:24:21;;;;;;;4.85;1.52;;;13.50;99.90;;;;;;5055949;28;20201;-86
2023/11/14 02:26:50;;;;;;;3.70;1.55;;;13.60;99.90;;;;;;5039762;28;20877;-86
2023/11/14 02:29:19;;;;;;;6.85;2.70;;;13.30;99.90;;;;;;5035786;28;20303;-86
2023/11/14 02:31:48;;;;;;;3.15;1.80;;;14.20;99.90;;;;;;5033482;28;20209;-86
2023/11/14 02:34:17;;;;;;;3.55;1.60;;;13.60;99.90;;;;;;5032376;28;20237;-86
2023/11/14 02:36:42;;;;;;;6.00;2.47;;;12.90;99.90;;;;;;5033416;28;20194;-86
2023/11/14 02:39:08;;;;;;;3.90;1.97;;;14.00;99.90;;;;;;5031950;28;20188;-86
2023/11/14 02:42:46;;;;;;;9.75;2.10;;;12.80;99.90;;;;;;5070724;27;20558;-86
2023/11/14 02:45:11;;;;;;;6.33;2.80;;;14.40;99.90;;;;;;5048332;28;20188;-85
2023/11/14 02:47:37;;;;;;;4.70;1.97;;;14.10;99.90;;;;;;5049060;28;20245;-85
2023/11/14 02:50:18;;;;;;;4.55;1.80;;;14.90;99.90;;;;;;5048719;28;20227;-85
2023/11/14 02:52:44;;;;;;;4.95;2.03;;;14.60;99.90;;;;;;5048096;28;20194;-85
2023/11/14 02:55:09;;;;;;;3.77;1.63;;;13.30;99.90;;;;;;5051001;28;20265;-86
2023/11/14 02:57:35;;;;;;;6.73;1.97;;;13.60;99.90;;;;;;5050209;28;20212;-85
2023/11/14 03:00:01;;;;;;;5.70;2.10;;;14.30;99.90;;;;;;5045134;28;20174;-85
2023/11/14 03:02:29;;;;;;;6.47;2.77;;;14.50;99.90;;;;;;5051372;28;20715;-85
2023/11/14 03:04:56;;;;;;;7.82;1.88;;;11.90;99.90;;;;;;5047362;28;20204;-85
2023/11/14 03:07:22;;;;;;;4.50;1.73;;;11.70;99.90;;;;;;5045083;28;20176;-87
2023/11/14 03:09:50;;;;;;;6.10;2.07;;;14.00;99.90;;;;;;5046286;28;20728;-87
2023/11/14 03:12:21;;;;;;;3.67;1.70;;;13.00;99.90;;;;;;5047164;28;20185;-85
2023/11/14 03:14:46;;;;;;;7.75;2.30;;;14.70;99.90;;;;;;5048180;28;20283;-87
2023/11/14 03:17:13;;;;;;;5.47;2.60;;;14.40;99.90;;;;;;5049156;28;20667;-87
2023/11/14 03:19:40;;;;;;;5.85;2.92;;;12.40;99.90;;;;;;5053448;28;20226;-87
2023/11/14 03:22:06;;;;;;;6.88;2.40;;;13.00;99.90;;;;;;5047046;28;20201;-87
2023/11/14 03:24:31;;;;;;;4.97;2.00;;;12.80;99.90;;;;;;5047514;28;20208;-87
2023/11/14 03:26:57;;;;;;;7.73;2.10;;;12.90;99.90;;;;;;5046416;28;20185;-87
2023/11/14 03:29:23;;;;;;;8.23;2.30;;;13.50;99.90;;;;;;5045107;28;20238;-87
2023/11/14 03:31:48;;;;;;;7.40;2.53;;;12.70;99.90;;;;;;5046912;28;20276;-87
2023/11/14 03:34:14;;;;;;;8.13;2.07;;;12.50;99.90;;;;;;5045679;28;20220;-85
2023/11/14 03:36:51;;;;;;;5.40;1.93;;;13.10;99.90;;;;;;5049532;28;20195;-84
2023/11/14 03:39:55;;;;;;;4.35;1.90;;;12.00;99.90;;;;;;5049550;28;20958;-83
2023/11/14 03:42:44;;;;;;;5.57;2.40;;;12.10;99.90;;;;;;5047032;28;20244;-84
2023/11/14 03:45:13;;;;;;;5.50;2.22;;;10.80;99.90;;;;;;5047811;28;20188;-85
2023/11/14 03:47:42;;;;;;;3.47;2.08;;;11.70;99.90;;;;;;5049492;28;20266;-84
2023/11/14 03:50:08;;;;;;;6.80;2.42;;;13.40;99.90;;;;;;5067520;28;20213;-84
2023/11/14 03:52:34;;;;;;;6.30;2.30;;;11.70;99.90;;;;;;5041963;28;20180;-85
2023/11/14 03:55:00;;;;;;;5.60;2.20;;;13.10;99.90;;;;;;5031187;28;20270;-85
2023/11/14 03:57:33;;;;;;;5.13;2.60;;;11.10;99.90;;;;;;5030726;28;20277;-85
2023/11/14 03:59:58;;;;;;;5.78;2.45;;;11.40;99.90;;;;;;5033602;28;20282;-85
2023/11/14 04:02:24;;;;;;;6.80;2.57;;;11.50;99.90;;;;;;5032338;28;20307;-85
2023/11/14 04:04:49;;;;;;;5.17;2.37;;;13.00;99.90;;;;;;5033639;28;20208;-84
2023/11/14 04:07:15;;;;;;;6.67;3.00;;;12.40;99.90;;;;;;5030584;28;20228;-85
2023/11/14 04:09:41;;;;;;;4.10;2.90;;;12.10;99.90;;;;;;5036235;28;20196;-85
2023/11/14 04:12:07;;;;;;;7.80;2.50;;;12.40;99.90;;;;;;5034235;28;20211;-85
2023/11/14 04:14:32;;;;;;;3.13;2.10;;;11.30;99.90;;;;;;5029387;28;20212;-85
2023/11/14 04:16:58;;;;;;;5.20;2.53;;;13.70;99.90;;;;;;5031729;28;20315;-85
2023/11/14 04:19:31;;;;;;;8.87;3.60;;;13.30;99.90;;;;;;5036769;28;20583;-85
2023/11/14 04:21:56;;;;;;;6.18;2.40;;;12.00;99.90;;;;;;5036248;28;20228;-85
2023/11/14 04:24:23;;;;;;;9.27;2.40;;;11.30;99.90;;;;;;5037967;28;20197;-85
2023/11/14 04:26:51;;;;;;;5.93;2.45;;;12.80;99.90;;;;;;5036623;28;20179;-85
2023/11/14 04:29:19;;;;;;;7.53;2.17;;;13.30;99.90;;;;;;5032699;28;20177;-85
2023/11/14 04:31:45;;;;;;;3.17;1.77;;;13.00;99.90;;;;;;5030813;28;20179;-85
2023/11/14 04:34:10;;;;;;;6.03;2.47;;;12.80;99.90;;;;;;5033012;28;20218;-85
2023/11/14 04:36:42;;;;;;;4.97;2.57;;;12.40;99.90;;;;;;5033004;28;20677;-85
2023/11/14 04:39:08;;;;;;;5.45;2.30;;;10.90;99.90;;;;;;5034500;28;20186;-83
2023/11/14 04:41:34;;;;;;;9.85;4.15;;;12.30;99.90;;;;;;5035117;28;20644;-84
2023/11/14 04:44:24;;;;;;;8.13;2.70;;;13.50;99.90;;;;;;5034285;28;20209;-86
2023/11/14 04:46:49;;;;;;;8.25;2.70;;;11.30;99.90;;;;;;5015802;28;20199;-83
2023/11/14 04:49:15;;;;;;;3.80;2.20;;;11.70;99.90;;;;;;5034988;28;20176;-83
2023/11/14 04:51:41;;;;;;;4.77;2.27;;;11.60;99.90;;;;;;5036107;28;20686;-83
2023/11/14 04:54:11;;;;;;;5.40;2.63;;;11.90;99.90;;;;;;5038440;28;20203;-83
2023/11/14 04:56:36;;;;;;;10.15;4.55;;;10.80;99.90;;;;;;5036255;28;20213;-83
2023/11/14 04:59:02;;;;;;;6.23;3.30;;;11.60;99.90;;;;;;5033429;28;20258;-83
2023/11/14 05:01:33;;;;;;;12.67;3.33;;;11.70;99.90;;;;;;5032011;28;20229;-83
2023/11/14 05:03:59;;;;;;;4.20;2.45;;;11.40;99.90;;;;;;5034633;28;20463;-83
2023/11/14 05:06:27;;;;;;;7.20;2.67;;;11.90;99.90;;;;;;5035000;28;20227;-84
2023/11/14 05:08:53;;;;;;;5.80;2.75;;;12.00;99.90;;;;;;5044998;28;20319;-84
2023/11/14 05:11:21;;;;;;;7.87;2.57;;;10.00;99.90;;;;;;5051821;28;20201;-83
2023/11/14 05:13:47;;;;;;;8.07;2.70;;;11.50;99.90;;;;;;5040560;28;20204;-83
2023/11/14 05:16:12;;;;;;;11.30;3.27;;;13.00;99.90;;;;;;5054193;28;20181;-83
2023/11/14 05:18:38;;;;;;;6.63;3.00;;;;;;;;;;5055486;28;20295;-84
2023/11/14 05:21:04;;;;;;;5.63;2.80;;;11.00;99.90;;;;;;5037435;28;20207;-83
2023/11/14 05:23:30;;;;;;;4.15;2.80;;;12.70;99.90;;;;;;5034380;28;20219;-83
2023/11/14 05:25:56;;;;;;;7.27;2.37;;;11.60;99.90;;;;;;5034029;28;20182;-83
2023/11/14 05:28:22;;;;;;;7.27;3.30;;;12.00;99.90;;;;;;5035695;28;20431;-83
2023/11/14 05:30:48;;;;;;;5.87;2.70;;;10.10;99.90;;;;;;5038315;28;20189;-83
2023/11/14 05:33:14;;;;;;;6.93;2.60;;;12.80;99.90;;;;;;5035637;28;20286;-83
2023/11/14 05:35:40;;;;;;;6.53;3.50;;;11.80;99.90;;;;;;5037655;28;20197;-83
2023/11/14 05:38:08;;;;;;;3.30;2.47;;;11.90;99.90;;;;;;5034086;28;20458;-83
2023/11/14 05:40:33;;;;;;;7.60;2.50;;;11.70;99.90;;;;;;5034328;28;20268;-83
2023/11/14 05:43:01;;;;;;;4.87;2.87;;;9.40;99.90;;;;;;5035128;28;20239;-83
2023/11/14 05:45:31;;;;;;;6.32;2.80;;;11.60;99.90;;;;;;5035565;28;20446;-83
2023/11/14 05:47:59;;;;;;;4.07;2.65;;;10.90;99.90;;;;;;5039189;28;20198;-83
2023/11/14 05:50:24;;;;;;;5.63;3.20;;;12.20;99.90;;;;;;5045160;28;20646;-83
2023/11/14 05:52:52;;;;;;;6.90;2.70;;;10.90;99.90;;;;;;5054259;28;20168;-83
2023/11/14 05:55:18;;;;;;;4.10;2.55;;;10.70;99.90;;;;;;5046766;28;20669;-83
2023/11/14 05:57:43;;;;;;;4.00;2.53;;;11.40;99.90;;;;;;5041070;28;20240;-83
2023/11/14 06:00:14;;;;;;;5.43;3.00;;;12.20;99.90;;;;;;5038329;28;20191;-85
2023/11/14 06:02:39;;;;;;;7.80;3.72;;;10.80;99.90;;;;;;5035603;28;20232;-83
2023/11/14 06:05:05;;;;;;;9.60;2.90;;;10.10;99.90;;;;;;5037489;28;20694;-83
2023/11/14 06:07:31;;;;;;;8.07;4.72;;;10.70;99.90;;;;;;5031987;28;20203;-83
2023/11/14 06:09:57;;;;;;;6.10;3.20;;;11.10;99.90;;;;;;5036142;28;20603;-83
2023/11/14 06:12:22;;;;;;;6.33;4.17;;;11.40;99.90;;;;;;5039166;28;20180;-83
2023/11/14 06:14:48;;;;;;;5.50;2.87;;;10.90;99.90;;;;;;5038769;28;20244;-84
2023/11/14 06:17:22;;;;;;;11.30;3.07;;;10.90;99.90;;;;;;5039604;28;20236;-83
2023/11/14 06:19:50;;;;;;;4.45;3.17;;;11.60;99.90;;;;;;5038080;28;20184;-83
2023/11/14 06:22:16;;;;;;;5.10;3.17;;;12.70;99.90;;;;;;5041283;28;20198;-84
2023/11/14 06:24:42;;;;;;;4.23;2.40;;;;;;;;;;5035598;28;20433;-83
2023/11/14 06:27:08;;;;;;;4.07;3.00;;;10.90;99.90;;;;;;5036132;28;20202;-81
2023/11/14 06:29:33;;;;;;;7.10;3.20;;;;;;;;;;5035772;28;20186;-81
2023/11/14 06:31:59;;;;;;;5.10;2.93;;;10.90;99.90;;;;;;5032725;28;20204;-80
2023/11/14 06:34:24;;;;;;;7.17;3.43;;;10.70;99.90;;;;;;5033853;28;20501;-81
2023/11/14 06:36:50;;;;;;;6.50;2.90;;;10.50;99.90;;;;;;5042218;28;20184;-81
2023/11/14 06:39:16;;;;;;;4.43;3.13;;;11.00;99.90;;;;;;5046865;28;20195;-82
2023/11/14 06:41:48;;;;;;;4.10;2.50;;;10.80;99.90;;;;;;5046608;28;20295;-82
2023/11/14 06:44:13;;;;;;;7.55;3.35;;;11.00;99.90;;;;;;5039686;28;20207;-88
2023/11/14 06:49:37;;;;;;;9.95;4.70;;;11.10;99.90;;;;;;5029366;28;20209;-89
2023/11/14 06:55:46;;;;;;;9.75;2.90;;;10.90;99.90;;;;;;4896300;29;20202;-88
2023/11/14 06:58:11;;;;;;;5.63;2.60;;;11.40;99.90;;;;;;4975635;28;20230;-88
2023/11/14 07:00:37;;;;;;;6.50;2.40;;;11.60;99.90;;;;;;5040503;28;20193;-88
2023/11/14 07:03:03;;;;;;;5.13;3.10;;;9.60;99.90;;;;;;5056178;28;20199;-89
2023/11/14 07:05:30;;;;;;;8.23;3.97;;;10.60;99.90;;;;;;5039709;28;20307;-89
2023/11/14 07:07:57;;;;;;;3.65;2.88;;;11.00;99.90;;;;;;5028187;28;20196;-89
2023/11/14 07:10:23;;;;;;;4.95;3.28;;;11.00;99.90;;;;;;5033103;28;20192;-89
2023/11/14 07:15:20;;;;;;;5.43;3.50;;;11.20;99.90;;;;;;5331430;22;20226;-86
2023/11/14 07:17:51;;;;;;;3.97;2.92;;;10.80;99.90;;;;;;5051489;28;20187;-87
2023/11/14 07:20:49;;;;;;;;;;;;;;;;;;;;;
2023/11/14 07:24:02;;;;;;;5.65;2.75;;;11.70;99.90;;;;;;5066892;28;20210;-87
2023/11/14 07:26:38;;;;;;;7.50;1.90;;;11.80;99.90;;;;;;5048345;28;20202;-86
2023/11/14 07:29:26;;;;;;;;;;;;;;;;;;;;;
2023/11/14 07:32:15;;;;;;;3.33;2.25;;;12.00;99.90;;;;;;5067110;28;20160;-87
2023/11/14 07:34:45;;;;;;;2.70;1.83;;;11.50;99.90;;;;;;5075873;28;20200;-86
2023/11/14 07:37:39;;;;;;;2.10;1.90;;;12.10;99.90;;;;;;5058634;28;20192;-86
2023/11/14 07:40:42;;;;;;;;;;;;;;;;;;;;;
2023/11/14 07:43:16;;;;;;;3.50;1.65;;;12.50;99.90;;;;;;5048145;28;20426;-85
2023/11/14 07:45:44;;;;;;;2.63;1.70;;;14.40;99.90;;;;;;5056687;28;20235;-86
2023/11/14 07:48:21;;;;;;;2.25;1.10;;;14.20;99.90;;;;;;5055061;28;20205;-87
2023/11/14 07:51:04;;;;;;;;;;;;;;;;;;;;;
2023/11/14 07:57:20;;;;;;;;;;;;;;;;;;;;;
2023/11/14 08:00:25;;;;;;;;;;;;;;;;;;;;;
2023/11/14 08:03:21;;;;;;;;;;;;;;;;;;;;;
2023/11/14 08:06:12;;;;;;;;;;;;;;;;;;;;;
2023/11/14 08:09:17;;;;;;;;;;;;;;;;;;;;;
2023/11/14 08:23:52;;;;;;;1.75;1.10;;;13.20;99.90;;;;;;5124999;22;20241;-86
2023/11/14 08:46:45;;;;;;;3.50;1.08;;;13.70;99.90;;;;;;5051259;28;20209;-87
2023/11/14 08:49:10;;;;;;;2.60;1.10;;;13.50;99.90;;;;;;5038608;28;20284;-88
2023/11/14 08:51:38;;;;;;;3.93;1.23;;;12.70;99.90;;;;;;5047211;28;20185;-88
2023/11/14 08:56:40;;;;;;;1.70;1.20;;;12.40;99.90;;;;;;5528967;22;20240;-88
2023/11/14 08:59:08;;;;;;;1.88;0.80;;;15.10;99.90;;;;;;5028427;28;20272;-88
2023/11/14 09:08:06;;;;;;;1.50;1.00;;;13.00;99.90;;;;;;6078774;22;21302;-88
2023/11/14 09:10:31;;;;;;;2.28;1.00;;;14.20;99.90;;;;;;5071408;28;20810;-86
2023/11/14 09:12:57;;;;;;;2.00;1.20;;;12.70;99.90;;;;;;5048965;28;20282;-87
2023/11/14 09:15:55;;;;;;;1.27;1.00;;;13.10;99.90;;;;;;5065324;28;20268;-88
2023/11/14 09:18:30;;;;;;;2.20;0.60;;;11.50;99.90;;;;;;5062344;28;20197;-87
2023/11/14 09:21:27;;;;;;;;;;;;;;;;;;;;;
2023/11/14 09:26:15;;;;;;;3.05;1.00;;;12.50;99.90;;;;;;5031834;28;20331;-89
2023/11/14 09:28:41;;;;;;;1.35;0.93;;;13.30;99.90;;;;;;5018495;28;20193;-89
2023/11/14 09:34:30;;;;;;;2.78;0.90;;;13.50;99.90;;;;;;5074484;23;20644;-90
2023/11/14 09:36:57;;;;;;;1.35;0.82;;;14.80;99.90;;;;;;5094637;28;20240;-86
2023/11/14 09:39:22;;;;;;;1.40;0.90;;;13.80;99.90;;;;;;5077161;28;20188;-86
2023/11/14 09:41:49;;;;;;;2.10;1.10;;;15.10;99.90;;;;;;5073251;28;20208;-85
2023/11/14 09:45:18;;;;;;;2.00;1.10;;;14.80;99.90;;;;;;5072784;28;20800;-88
2023/11/14 09:48:23;;;;;;;;;;;;;;;;;;;;;
2023/11/14 09:50:52;;;;;;;1.90;1.10;;;13.30;99.90;;;;;;5089557;28;20188;-86
2023/11/14 09:53:26;;;;;;;3.83;2.58;;;13.60;99.90;;;;;;5110752;28;20201;-90
2023/11/14 09:56:00;;;;;;;2.47;1.55;;;13.20;99.90;;;;;;5085086;28;20636;-89
2023/11/14 10:02:28;;;;;;;1.42;0.82;;;13.50;99.90;;;;;;5068225;28;20757;-89
2023/11/14 10:04:56;;;;;;;2.58;1.20;;;13.50;99.90;;;;;;5069746;28;20201;-88
2023/11/14 10:07:22;;;;;;;2.13;1.40;;;13.50;99.90;;;;;;5086238;28;20173;-88
2023/11/14 10:09:48;;;;;;;3.63;1.40;;;14.50;99.90;;;;;;5084733;28;20209;-88
2023/11/14 10:12:36;;;;;;;1.87;1.07;;;14.70;99.90;;;;;;5069664;28;20638;-89
2023/11/14 10:15:28;;;;;;;5.15;2.45;;;13.10;99.90;;;;;;5071213;28;20185;-91
2023/11/14 10:18:04;;;;;;;1.20;0.90;;;13.10;99.90;;;;;;5074963;28;20223;-89
2023/11/14 10:21:04;;;;;;;3.47;1.88;;;13.30;99.90;;;;;;5082849;28;20208;-89
2023/11/14 10:23:42;;;;;;;4.47;2.10;;;13.70;99.90;;;;;;5066911;28;20196;-89
2023/11/14 10:27:50;;;;;;;1.83;1.30;;;13.30;99.90;;;;;;5068634;28;20177;-90
2023/11/14 10:29:55;;;;;;;1.73;0.98;;;13.50;99.90;;;;;;5008203;28;20236;-89
2023/11/14 10:32:24;;;;;;;4.03;2.15;;;15.50;99.90;;;;;;4994097;28;20186;-89
2023/11/14 10:34:53;;;;;;;2.78;1.20;;;13.50;99.90;;;;;;5048316;28;20254;-89
2023/11/14 10:37:33;;;;;;;2.75;1.00;;;13.10;99.90;;;;;;5066511;28;20268;-89
2023/11/14 10:40:06;;;;;;;1.60;0.90;;;13.00;99.90;;;;;;5066708;28;20525;-87
2023/11/14 10:42:31;;;;;;;4.03;1.73;;;13.20;99.90;;;;;;5070109;28;20201;-88
2023/11/14 10:45:14;;;;;;;1.08;0.80;;;14.90;99.90;;;;;;5072029;28;20541;-90
2023/11/14 10:47:42;;;;;;;1.98;1.00;;;13.10;99.90;;;;;;5084327;28;20297;-90
2023/11/14 10:50:29;;;;;;;2.25;1.02;;;14.80;99.90;;;;;;5070403;28;20237;-91
2023/11/14 10:52:56;;;;;;;1.70;0.90;;;14.00;99.90;;;;;;5051977;28;20303;-89
2023/11/14 10:55:25;;;;;;;1.60;0.90;;;14.10;99.90;;;;;;5068506;28;20626;-92
2023/11/14 10:57:52;;;;;;;2.10;1.05;;;14.10;99.90;;;;;;5067067;28;20196;-90
2023/11/14 11:01:05;;;;;;;1.65;0.90;;;13.10;99.90;;;;;;5066144;28;20220;-88
2023/11/14 11:04:02;;;;;;;1.77;1.15;;;13.80;99.90;;;;;;5097442;22;20736;-88
2023/11/14 11:10:47;;;;;;;1.85;1.30;;;13.90;99.90;;;;;;5054005;28;20192;-90
2023/11/14 11:13:26;;;;;;;3.38;1.38;;;13.20;99.90;;;;;;5055966;28;20193;-88
2023/11/14 11:15:56;;;;;;;3.83;1.50;;;14.00;99.90;;;;;;5057527;28;20197;-88
2023/11/14 11:18:34;;;;;;;1.50;0.90;;;13.80;99.90;;;;;;5057360;28;20178;-87
2023/11/14 11:21:13;;;;;;;2.10;1.00;;;14.60;99.90;;;;;;5049416;28;20201;-88
2023/11/14 11:24:05;;;;;;;2.92;1.40;;;13.90;99.90;;;;;;5050221;28;20251;-88
2023/11/14 11:26:30;;;;;;;2.13;1.05;;;14.20;99.90;;;;;;5052376;28;20178;-88
2023/11/14 11:28:56;;;;;;;1.67;0.80;;;15.80;99.90;;;;;;5050882;28;20235;-88
2023/11/14 11:31:24;;;;;;;3.43;1.10;;;14.10;99.90;;;;;;5057150;28;20193;-88
2023/11/14 11:33:50;;;;;;;2.35;0.90;;;15.90;99.90;;;;;;5053829;28;20211;-88
2023/11/14 11:36:23;;;;;;;2.22;1.00;;;14.90;99.90;;;;;;5048319;28;20181;-89
2023/11/14 11:39:00;;;;;;;2.88;1.17;;;13.70;99.90;;;;;;5050245;28;20239;-91
2023/11/14 11:41:39;;;;;;;5.68;1.75;;;14.50;99.90;;;;;;5055395;28;20292;-88
2023/11/14 11:44:09;;;;;;;4.88;1.88;;;16.00;99.90;;;;;;5063062;28;20217;-89
2023/11/14 12:01:12;;;;;;;5.28;2.00;;;14.20;99.90;;;;;;5481350;22;20317;-87
2023/11/14 12:03:37;;;;;;;2.45;1.30;;;12.90;99.90;;;;;;5074285;28;20204;-90
2023/11/14 12:06:09;;;;;;;1.57;1.43;;;14.30;99.90;;;;;;5075187;28;20254;-91
2023/11/14 12:08:37;;;;;;;3.75;0.88;;;14.40;99.90;;;;;;5075386;28;20326;-90
2023/11/14 12:11:06;;;;;;;4.90;1.55;;;14.60;99.90;;;;;;5079773;28;20785;-89
2023/11/14 12:13:42;;;;;;;2.70;1.40;;;14.50;99.90;;;;;;5069024;28;20696;-87
2023/11/14 12:16:08;;;;;;;3.55;1.50;;;14.10;99.90;;;;;;5074181;28;20181;-88
2023/11/14 12:18:33;;;;;;;1.63;1.20;;;13.90;99.90;;;;;;5075006;28;20248;-85
2023/11/14 12:20:59;;;;;;;3.07;1.17;;;13.90;99.90;;;;;;5074313;28;20295;-87
2023/11/14 12:23:25;;;;;;;3.38;1.08;;;14.10;99.90;;;;;;5070598;28;20258;-87
2023/11/14 12:25:51;;;;;;;2.23;1.33;;;14.40;99.90;;;;;;5072498;28;20178;-87
2023/11/14 12:28:16;;;;;;;2.70;2.23;;;14.20;99.90;;;;;;5073172;28;20515;-86
2023/11/14 12:30:59;;;;;;;3.40;1.10;;;14.10;99.90;;;;;;5073074;28;20188;-86
2023/11/14 12:33:25;;;;;;;4.50;1.45;;;13.70;99.90;;;;;;5070866;28;20591;-86
2023/11/14 12:35:57;;;;;;;4.70;1.37;;;14.50;99.90;;;;;;5071020;28;20177;-87
2023/11/14 12:38:50;;;;;;;2.78;1.23;;;14.10;99.90;;;;;;5070695;28;20196;-85
2023/11/14 12:41:18;;;;;;;2.45;0.95;;;14.10;99.90;;;;;;5073682;28;20214;-90
2023/11/14 12:46:33;;;;;;;3.00;1.88;;;12.60;99.90;;;;;;5150436;22;20248;-87
2023/11/14 12:49:16;;;;;;;6.13;1.63;;;14.10;99.90;;;;;;5054476;28;20239;-89
2023/11/14 12:51:47;;;;;;;1.95;1.73;;;14.10;99.90;;;;;;5043116;28;20203;-89
2023/11/14 12:54:28;;;;;;;1.98;1.15;;;14.30;99.90;;;;;;5048225;28;20244;-89
2023/11/14 12:57:25;;;;;;;1.80;1.10;;;14.60;99.90;;;;;;5042663;28;20234;-88
2023/11/14 12:59:52;;;;;;;3.17;1.20;;;13.90;99.90;;;;;;5038648;28;20256;-89
2023/11/14 13:02:17;;;;;;;2.85;1.05;;;13.90;99.90;;;;;;5039228;28;20212;-90
2023/11/14 13:04:43;;;;;;;4.17;1.17;;;13.30;99.90;;;;;;5033507;28;20284;-92
2023/11/14 13:07:10;;;;;;;1.90;1.30;;;14.20;99.90;;;;;;5036096;28;20559;-91
2023/11/14 13:12:57;;;;;;;2.30;1.10;;;13.90;99.90;;;;;;5058267;22;20204;-89
2023/11/14 13:15:24;;;;;;;3.60;1.27;;;12.80;99.90;;;;;;5019265;28;20178;-88
2023/11/14 13:17:49;;;;;;;3.67;1.30;;;13.50;99.90;;;;;;5016785;28;20559;-88
2023/11/14 13:20:15;;;;;;;3.33;1.67;;;14.60;99.90;;;;;;5022291;28;20177;-89
2023/11/14 13:22:44;;;;;;;3.73;1.50;;;14.30;99.90;;;;;;5018400;28;20201;-88
2023/11/14 13:25:14;;;;;;;3.85;1.48;;;13.70;99.90;;;;;;5017035;28;20663;-86
2023/11/14 13:27:40;;;;;;;2.72;1.15;;;15.80;99.90;;;;;;5038461;28;20174;-90
2023/11/14 13:30:06;;;;;;;2.87;2.13;;;16.00;99.90;;;;;;5015778;28;20699;-91
2023/11/14 13:32:33;;;;;;;3.33;1.23;;;13.80;99.90;;;;;;5014180;28;20277;-92
2023/11/14 13:34:59;;;;;;;1.60;1.20;;;13.60;99.90;;;;;;5016659;28;20186;-90
2023/11/14 13:37:24;;;;;;;2.87;1.03;;;15.40;99.90;;;;;;5018400;28;20182;-90
2023/11/14 13:39:50;;;;;;;3.10;0.97;;;15.70;99.90;;;;;;5029804;28;20727;-89
2023/11/14 13:42:16;;;;;;;2.40;1.10;;;15.00;99.90;;;;;;5018220;28;20209;-89
2023/11/14 13:44:41;;;;;;;2.97;1.97;;;14.90;99.90;;;;;;5017887;28;20275;-89
2023/11/14 13:50:15;;;;;;;2.85;1.17;;;13.80;99.90;;;;;;5042988;28;20196;-93
2023/11/14 13:52:41;;;;;;;1.45;1.10;;;13.10;99.90;;;;;;5020729;28;20189;-89
2023/11/14 13:55:10;;;;;;;3.35;1.20;;;15.10;99.90;;;;;;5015944;28;20249;-90
2023/11/14 13:57:35;;;;;;;1.85;0.90;;;14.00;99.90;;;;;;4999096;28;20202;-93
2023/11/14 14:00:01;;;;;;;3.70;0.90;;;16.00;99.90;;;;;;5017468;28;20189;-91
2023/11/14 14:02:34;;;;;;;3.63;1.27;;;14.10;99.90;;;;;;5019883;28;20202;-93
2023/11/14 14:05:34;;;;;;;1.08;0.90;;;13.80;99.90;;;;;;5036674;28;20480;-93
2023/11/14 14:08:09;;;;;;;3.45;1.30;;;13.50;99.70;;;;;;4995890;28;20734;-90
2023/11/14 14:11:23;;;;;;;3.30;1.45;;;14.50;99.90;;;;;;5032894;28;20209;-90
2023/11/14 14:13:48;;;;;;;1.55;1.00;;;14.10;99.90;;;;;;5028835;28;20240;-87
2023/11/14 14:16:14;;;;;;;2.07;1.10;;;;;;;;;;5019200;28;20217;-90
2023/11/14 14:18:40;;;;;;;1.10;1.00;;;14.00;99.70;;;;;;5033729;28;20190;-90
2023/11/14 14:21:06;;;;;;;4.40;1.60;;;15.50;99.90;;;;;;5015464;28;20305;-90
2023/11/14 14:23:32;;;;;;;2.42;1.30;;;13.00;99.90;;;;;;5022521;28;20209;-88
2023/11/14 14:25:58;;;;;;;2.60;1.43;;;13.70;99.90;;;;;;5025705;28;20179;-88
2023/11/14 14:28:30;;;;;;;1.98;0.90;;;14.10;99.90;;;;;;5034684;28;20478;-90
2023/11/14 14:30:57;;;;;;;5.28;1.20;;;13.50;99.90;;;;;;5040922;28;20186;-90
2023/11/14 14:33:22;;;;;;;1.70;1.10;;;15.10;99.90;;;;;;5027488;28;20674;-89
2023/11/14 14:35:52;;;;;;;3.13;1.23;;;15.70;99.90;;;;;;5042308;28;20177;-90
2023/11/14 14:38:18;;;;;;;2.38;1.10;;;13.20;99.90;;;;;;5052812;28;20182;-88
2023/11/14 14:40:44;;;;;;;2.33;1.10;;;13.30;99.90;;;;;;5036057;28;20256;-85
2023/11/14 14:43:10;;;;;;;1.67;0.97;;;13.30;99.90;;;;;;5038497;28;20467;-88
2023/11/14 14:45:36;;;;;;;1.73;1.20;;;13.30;99.90;;;;;;5053678;28;20219;-87
2023/11/14 14:48:03;;;;;;;2.87;1.43;;;;;;;;;;5018752;28;20190;-88
2023/11/14 14:50:29;;;;;;;2.80;1.17;;;13.60;99.90;;;;;;5032545;28;21074;-89
2023/11/14 14:52:56;;;;;;;2.00;1.30;;;13.40;99.90;;;;;;5052439;28;20177;-87
2023/11/14 14:55:25;;;;;;;4.13;1.67;;;12.80;99.90;;;;;;5033288;28;20230;-88
2023/11/14 14:57:57;;;;;;;4.32;1.50;;;13.30;99.90;;;;;;5031740;28;20256;-88
2023/11/14 15:00:22;;;;;;;1.35;0.90;;;14.40;99.90;;;;;;5018890;28;20476;-88
2023/11/14 15:02:50;;;;;;;4.10;1.48;;;15.20;99.90;;;;;;5048712;28;20281;-88